sensor_id;sensor_type;location;lat;lon;timestamp;P1;durP1;ratioP1;P2;durP2;ratioP2
20363;SDS011;10340;53.664;9.908;2023-02-26T00:01:40;2.30;;;1.57;;
20363;SDS011;10340;53.664;9.908;2023-02-26T00:04:08;2.87;;;1.60;;
20363;SDS011;10340;53.664;9.908;2023-02-26T00:06:36;2.77;;;1.40;;
20363;SDS011;10340;53.664;9.908;2023-02-26T00:09:16;1.50;;;1.40;;
20363;SDS011;10340;53.664;9.908;2023-02-26T00:11:43;1.33;;;1.23;;
20363;SDS011;10340;53.664;9.908;2023-02-26T00:14:12;2.13;;;1.60;;
20363;SDS011;10340;53.664;9.908;2023-02-26T00:16:42;1.27;;;1.17;;
20363;SDS011;10340;53.664;9.908;2023-02-26T00:19:13;2.40;;;1.53;;
20363;SDS011;10340;53.664;9.908;2023-02-26T00:21:41;1.30;;;1.30;;
20363;SDS011;10340;53.664;9.908;2023-02-26T00:24:08;2.43;;;1.30;;
20363;SDS011;10340;53.664;9.908;2023-02-26T00:26:35;1.43;;;1.33;;
20363;SDS011;10340;53.664;9.908;2023-02-26T00:29:02;2.27;;;1.23;;
20363;SDS011;10340;53.664;9.908;2023-02-26T00:31:29;1.73;;;1.10;;
20363;SDS011;10340;53.664;9.908;2023-02-26T00:33:59;2.00;;;1.23;;
20363;SDS011;10340;53.664;9.908;2023-02-26T00:36:28;1.27;;;1.17;;
20363;SDS011;10340;53.664;9.908;2023-02-26T00:39:04;3.77;;;1.60;;
20363;SDS011;10340;53.664;9.908;2023-02-26T00:41:35;1.87;;;1.27;;
20363;SDS011;10340;53.664;9.908;2023-02-26T00:44:03;1.87;;;1.40;;
20363;SDS011;10340;53.664;9.908;2023-02-26T00:46:35;2.20;;;1.40;;
20363;SDS011;10340;53.664;9.908;2023-02-26T00:49:12;1.70;;;1.50;;
20363;SDS011;10340;53.664;9.908;2023-02-26T00:51:48;1.50;;;1.40;;
20363;SDS011;10340;53.664;9.908;2023-02-26T00:54:19;2.60;;;1.30;;
20363;SDS011;10340;53.664;9.908;2023-02-26T00:56:47;3.93;;;1.40;;
20363;SDS011;10340;53.664;9.908;2023-02-26T00:59:14;3.37;;;1.80;;
20363;SDS011;10340;53.664;9.908;2023-02-26T01:01:42;1.30;;;1.20;;
20363;SDS011;10340;53.664;9.908;2023-02-26T01:04:10;1.87;;;1.17;;
20363;SDS011;10340;53.664;9.908;2023-02-26T01:06:40;1.80;;;1.70;;
20363;SDS011;10340;53.664;9.908;2023-02-26T01:09:11;2.77;;;1.30;;
20363;SDS011;10340;53.664;9.908;2023-02-26T01:11:44;3.90;;;1.87;;
20363;SDS011;10340;53.664;9.908;2023-02-26T01:14:11;1.40;;;1.30;;
20363;SDS011;10340;53.664;9.908;2023-02-26T01:16:41;1.67;;;1.57;;
20363;SDS011;10340;53.664;9.908;2023-02-26T01:19:15;3.13;;;1.70;;
20363;SDS011;10340;53.664;9.908;2023-02-26T01:21:49;1.80;;;1.47;;
20363;SDS011;10340;53.664;9.908;2023-02-26T01:24:21;2.83;;;1.73;;
20363;SDS011;10340;53.664;9.908;2023-02-26T01:26:50;2.20;;;1.83;;
20363;SDS011;10340;53.664;9.908;2023-02-26T01:29:17;1.70;;;1.57;;
20363;SDS011;10340;53.664;9.908;2023-02-26T01:31:47;2.53;;;1.47;;
20363;SDS011;10340;53.664;9.908;2023-02-26T01:34:21;1.77;;;1.67;;
20363;SDS011;10340;53.664;9.908;2023-02-26T01:36:53;1.83;;;1.70;;
20363;SDS011;10340;53.664;9.908;2023-02-26T01:39:25;2.20;;;1.57;;
20363;SDS011;10340;53.664;9.908;2023-02-26T01:41:57;2.47;;;1.80;;
20363;SDS011;10340;53.664;9.908;2023-02-26T01:44:32;3.90;;;1.90;;
20363;SDS011;10340;53.664;9.908;2023-02-26T01:47:09;1.97;;;1.87;;
20363;SDS011;10340;53.664;9.908;2023-02-26T01:49:47;2.17;;;1.60;;
20363;SDS011;10340;53.664;9.908;2023-02-26T01:55:27;3.93;;;1.47;;
20363;SDS011;10340;53.664;9.908;2023-02-26T01:57:55;2.47;;;1.50;;
20363;SDS011;10340;53.664;9.908;2023-02-26T02:00:26;3.30;;;1.80;;
20363;SDS011;10340;53.664;9.908;2023-02-26T02:02:54;1.70;;;1.60;;
20363;SDS011;10340;53.664;9.908;2023-02-26T02:05:23;2.23;;;1.50;;
20363;SDS011;10340;53.664;9.908;2023-02-26T02:07:54;1.97;;;1.50;;
20363;SDS011;10340;53.664;9.908;2023-02-26T02:10:21;2.37;;;1.67;;
20363;SDS011;10340;53.664;9.908;2023-02-26T02:12:50;1.53;;;1.43;;
20363;SDS011;10340;53.664;9.908;2023-02-26T02:15:24;2.87;;;1.60;;
20363;SDS011;10340;53.664;9.908;2023-02-26T02:18:06;1.63;;;1.50;;
20363;SDS011;10340;53.664;9.908;2023-02-26T02:20:58;1.87;;;1.60;;
20363;SDS011;10340;53.664;9.908;2023-02-26T02:23:54;1.83;;;1.60;;
20363;SDS011;10340;53.664;9.908;2023-02-26T02:26:41;1.93;;;1.60;;
20363;SDS011;10340;53.664;9.908;2023-02-26T02:32:34;2.77;;;1.80;;
20363;SDS011;10340;53.664;9.908;2023-02-26T02:35:07;3.47;;;1.80;;
20363;SDS011;10340;53.664;9.908;2023-02-26T02:37:40;1.60;;;1.50;;
20363;SDS011;10340;53.664;9.908;2023-02-26T02:40:12;3.17;;;1.50;;
20363;SDS011;10340;53.664;9.908;2023-02-26T02:42:43;1.53;;;1.43;;
20363;SDS011;10340;53.664;9.908;2023-02-26T02:45:17;2.50;;;1.50;;
20363;SDS011;10340;53.664;9.908;2023-02-26T02:47:51;2.13;;;1.60;;
20363;SDS011;10340;53.664;9.908;2023-02-26T02:50:24;2.37;;;1.77;;
20363;SDS011;10340;53.664;9.908;2023-02-26T02:52:56;2.63;;;1.87;;
20363;SDS011;10340;53.664;9.908;2023-02-26T02:55:27;1.70;;;1.60;;
20363;SDS011;10340;53.664;9.908;2023-02-26T02:57:59;1.50;;;1.40;;
20363;SDS011;10340;53.664;9.908;2023-02-26T03:00:30;3.17;;;1.67;;
20363;SDS011;10340;53.664;9.908;2023-02-26T03:03:05;2.43;;;1.97;;
20363;SDS011;10340;53.664;9.908;2023-02-26T03:05:36;2.17;;;1.30;;
20363;SDS011;10340;53.664;9.908;2023-02-26T03:08:05;3.23;;;1.87;;
20363;SDS011;10340;53.664;9.908;2023-02-26T03:10:34;3.03;;;1.80;;
20363;SDS011;10340;53.664;9.908;2023-02-26T03:13:01;1.70;;;1.60;;
20363;SDS011;10340;53.664;9.908;2023-02-26T03:15:32;5.50;;;2.30;;
20363;SDS011;10340;53.664;9.908;2023-02-26T03:18:08;1.83;;;1.73;;
20363;SDS011;10340;53.664;9.908;2023-02-26T03:20:44;3.43;;;1.97;;
20363;SDS011;10340;53.664;9.908;2023-02-26T03:23:18;2.93;;;1.77;;
20363;SDS011;10340;53.664;9.908;2023-02-26T03:25:50;2.87;;;1.40;;
20363;SDS011;10340;53.664;9.908;2023-02-26T03:28:22;1.87;;;1.60;;
20363;SDS011;10340;53.664;9.908;2023-02-26T03:30:55;2.00;;;1.90;;
20363;SDS011;10340;53.664;9.908;2023-02-26T03:33:27;2.57;;;1.80;;
20363;SDS011;10340;53.664;9.908;2023-02-26T03:36:02;2.40;;;1.77;;
20363;SDS011;10340;53.664;9.908;2023-02-26T03:38:38;1.50;;;1.40;;
20363;SDS011;10340;53.664;9.908;2023-02-26T03:41:11;4.77;;;2.07;;
20363;SDS011;10340;53.664;9.908;2023-02-26T03:43:41;1.70;;;1.60;;
20363;SDS011;10340;53.664;9.908;2023-02-26T03:46:13;1.60;;;1.50;;
20363;SDS011;10340;53.664;9.908;2023-02-26T03:48:44;1.90;;;1.73;;
20363;SDS011;10340;53.664;9.908;2023-02-26T03:51:14;4.47;;;1.77;;
20363;SDS011;10340;53.664;9.908;2023-02-26T03:53:43;2.43;;;1.80;;
20363;SDS011;10340;53.664;9.908;2023-02-26T03:56:15;1.80;;;1.50;;
20363;SDS011;10340;53.664;9.908;2023-02-26T03:58:45;1.73;;;1.63;;
20363;SDS011;10340;53.664;9.908;2023-02-26T04:01:13;2.07;;;1.67;;
20363;SDS011;10340;53.664;9.908;2023-02-26T04:03:46;2.70;;;1.67;;
20363;SDS011;10340;53.664;9.908;2023-02-26T04:06:17;1.67;;;1.57;;
20363;SDS011;10340;53.664;9.908;2023-02-26T04:08:45;2.87;;;1.50;;
20363;SDS011;10340;53.664;9.908;2023-02-26T04:11:14;2.80;;;1.70;;
20363;SDS011;10340;53.664;9.908;2023-02-26T04:13:43;2.30;;;1.77;;
20363;SDS011;10340;53.664;9.908;2023-02-26T04:16:10;2.27;;;1.67;;
20363;SDS011;10340;53.664;9.908;2023-02-26T04:18:40;2.93;;;1.57;;
20363;SDS011;10340;53.664;9.908;2023-02-26T04:21:11;3.03;;;1.77;;
20363;SDS011;10340;53.664;9.908;2023-02-26T04:23:38;3.07;;;1.60;;
20363;SDS011;10340;53.664;9.908;2023-02-26T04:26:05;2.30;;;1.73;;
20363;SDS011;10340;53.664;9.908;2023-02-26T04:28:32;2.00;;;1.80;;
20363;SDS011;10340;53.664;9.908;2023-02-26T04:31:02;3.87;;;1.67;;
20363;SDS011;10340;53.664;9.908;2023-02-26T04:33:29;1.60;;;1.50;;
20363;SDS011;10340;53.664;9.908;2023-02-26T04:35:57;2.60;;;1.80;;
20363;SDS011;10340;53.664;9.908;2023-02-26T04:38:25;1.60;;;1.50;;
20363;SDS011;10340;53.664;9.908;2023-02-26T04:40:53;2.77;;;1.63;;
20363;SDS011;10340;53.664;9.908;2023-02-26T04:43:21;1.70;;;1.60;;
20363;SDS011;10340;53.664;9.908;2023-02-26T04:45:48;2.43;;;1.90;;
20363;SDS011;10340;53.664;9.908;2023-02-26T04:48:17;1.70;;;1.60;;
20363;SDS011;10340;53.664;9.908;2023-02-26T04:50:44;2.30;;;1.50;;
20363;SDS011;10340;53.664;9.908;2023-02-26T04:53:11;4.20;;;1.70;;
20363;SDS011;10340;53.664;9.908;2023-02-26T04:55:40;2.53;;;1.73;;
20363;SDS011;10340;53.664;9.908;2023-02-26T04:58:07;3.10;;;1.77;;
20363;SDS011;10340;53.664;9.908;2023-02-26T05:00:34;1.57;;;1.47;;
20363;SDS011;10340;53.664;9.908;2023-02-26T05:03:01;1.43;;;1.40;;
20363;SDS011;10340;53.664;9.908;2023-02-26T05:05:28;1.93;;;1.83;;
20363;SDS011;10340;53.664;9.908;2023-02-26T05:07:55;1.60;;;1.43;;
20363;SDS011;10340;53.664;9.908;2023-02-26T05:10:23;1.70;;;1.60;;
20363;SDS011;10340;53.664;9.908;2023-02-26T05:12:51;1.60;;;1.50;;
20363;SDS011;10340;53.664;9.908;2023-02-26T05:15:19;3.87;;;1.30;;
20363;SDS011;10340;53.664;9.908;2023-02-26T05:17:48;1.30;;;1.30;;
20363;SDS011;10340;53.664;9.908;2023-02-26T05:20:15;1.53;;;1.30;;
20363;SDS011;10340;53.664;9.908;2023-02-26T05:22:42;4.07;;;1.50;;
20363;SDS011;10340;53.664;9.908;2023-02-26T05:25:09;5.43;;;1.57;;
20363;SDS011;10340;53.664;9.908;2023-02-26T05:27:37;1.40;;;1.30;;
20363;SDS011;10340;53.664;9.908;2023-02-26T05:30:09;2.43;;;2.23;;
20363;SDS011;10340;53.664;9.908;2023-02-26T05:32:38;3.27;;;1.60;;
20363;SDS011;10340;53.664;9.908;2023-02-26T05:35:05;4.10;;;2.80;;
20363;SDS011;10340;53.664;9.908;2023-02-26T05:37:33;3.40;;;3.00;;
20363;SDS011;10340;53.664;9.908;2023-02-26T05:40:00;2.70;;;2.50;;
20363;SDS011;10340;53.664;9.908;2023-02-26T05:42:27;2.60;;;2.40;;
20363;SDS011;10340;53.664;9.908;2023-02-26T05:44:54;1.87;;;1.70;;
20363;SDS011;10340;53.664;9.908;2023-02-26T05:47:23;2.63;;;2.13;;
20363;SDS011;10340;53.664;9.908;2023-02-26T05:49:50;2.27;;;2.07;;
20363;SDS011;10340;53.664;9.908;2023-02-26T05:52:17;1.60;;;1.50;;
20363;SDS011;10340;53.664;9.908;2023-02-26T05:54:44;3.43;;;1.60;;
20363;SDS011;10340;53.664;9.908;2023-02-26T05:57:11;1.70;;;1.60;;
20363;SDS011;10340;53.664;9.908;2023-02-26T05:59:38;4.77;;;1.83;;
20363;SDS011;10340;53.664;9.908;2023-02-26T06:02:05;1.83;;;1.73;;
20363;SDS011;10340;53.664;9.908;2023-02-26T06:04:34;3.70;;;1.90;;
20363;SDS011;10340;53.664;9.908;2023-02-26T06:07:01;2.47;;;1.90;;
20363;SDS011;10340;53.664;9.908;2023-02-26T06:09:28;1.40;;;1.30;;
20363;SDS011;10340;53.664;9.908;2023-02-26T06:11:55;1.90;;;1.80;;
20363;SDS011;10340;53.664;9.908;2023-02-26T06:14:22;2.63;;;1.80;;
20363;SDS011;10340;53.664;9.908;2023-02-26T06:16:49;3.80;;;1.47;;
20363;SDS011;10340;53.664;9.908;2023-02-26T06:19:19;2.97;;;1.73;;
20363;SDS011;10340;53.664;9.908;2023-02-26T06:21:48;2.90;;;1.43;;
20363;SDS011;10340;53.664;9.908;2023-02-26T06:24:15;1.70;;;1.60;;
20363;SDS011;10340;53.664;9.908;2023-02-26T06:26:42;2.50;;;1.70;;
20363;SDS011;10340;53.664;9.908;2023-02-26T06:29:09;2.17;;;1.60;;
20363;SDS011;10340;53.664;9.908;2023-02-26T06:31:36;1.80;;;1.67;;
20363;SDS011;10340;53.664;9.908;2023-02-26T06:34:03;0.77;;;0.77;;
20363;SDS011;10340;53.664;9.908;2023-02-26T06:36:30;0.90;;;0.90;;
20363;SDS011;10340;53.664;9.908;2023-02-26T06:38:58;0.80;;;0.80;;
20363;SDS011;10340;53.664;9.908;2023-02-26T06:41:25;0.80;;;0.80;;
20363;SDS011;10340;53.664;9.908;2023-02-26T06:43:52;0.67;;;0.67;;
20363;SDS011;10340;53.664;9.908;2023-02-26T06:46:19;0.80;;;0.80;;
20363;SDS011;10340;53.664;9.908;2023-02-26T06:48:46;0.90;;;0.90;;
20363;SDS011;10340;53.664;9.908;2023-02-26T06:51:13;0.83;;;0.83;;
20363;SDS011;10340;53.664;9.908;2023-02-26T06:53:40;0.80;;;0.80;;
20363;SDS011;10340;53.664;9.908;2023-02-26T06:56:08;0.80;;;0.80;;
20363;SDS011;10340;53.664;9.908;2023-02-26T06:58:36;0.80;;;0.80;;
20363;SDS011;10340;53.664;9.908;2023-02-26T07:01:03;0.73;;;0.73;;
20363;SDS011;10340;53.664;9.908;2023-02-26T07:03:30;0.73;;;0.73;;
20363;SDS011;10340;53.664;9.908;2023-02-26T07:05:57;0.70;;;0.70;;
20363;SDS011;10340;53.664;9.908;2023-02-26T07:08:24;0.60;;;0.60;;
20363;SDS011;10340;53.664;9.908;2023-02-26T07:10:51;0.73;;;0.73;;
20363;SDS011;10340;53.664;9.908;2023-02-26T07:13:20;0.77;;;0.77;;
20363;SDS011;10340;53.664;9.908;2023-02-26T07:15:47;0.70;;;0.70;;
20363;SDS011;10340;53.664;9.908;2023-02-26T07:18:14;0.70;;;0.70;;
20363;SDS011;10340;53.664;9.908;2023-02-26T07:20:41;0.90;;;0.90;;
20363;SDS011;10340;53.664;9.908;2023-02-26T07:23:09;0.80;;;0.80;;
20363;SDS011;10340;53.664;9.908;2023-02-26T07:25:36;0.77;;;0.77;;
20363;SDS011;10340;53.664;9.908;2023-02-26T07:28:03;0.77;;;0.77;;
20363;SDS011;10340;53.664;9.908;2023-02-26T07:30:32;0.60;;;0.60;;
20363;SDS011;10340;53.664;9.908;2023-02-26T07:33:00;0.50;;;0.50;;
20363;SDS011;10340;53.664;9.908;2023-02-26T07:35:27;0.67;;;0.67;;
20363;SDS011;10340;53.664;9.908;2023-02-26T07:37:54;0.70;;;0.70;;
20363;SDS011;10340;53.664;9.908;2023-02-26T07:40:21;0.60;;;0.60;;
20363;SDS011;10340;53.664;9.908;2023-02-26T07:42:47;0.70;;;0.70;;
20363;SDS011;10340;53.664;9.908;2023-02-26T07:45:14;0.60;;;0.60;;
20363;SDS011;10340;53.664;9.908;2023-02-26T07:47:47;0.70;;;0.70;;
20363;SDS011;10340;53.664;9.908;2023-02-26T07:50:15;0.73;;;0.73;;
20363;SDS011;10340;53.664;9.908;2023-02-26T07:52:42;0.60;;;0.60;;
20363;SDS011;10340;53.664;9.908;2023-02-26T07:55:10;0.50;;;0.50;;
20363;SDS011;10340;53.664;9.908;2023-02-26T07:57:37;0.60;;;0.60;;
20363;SDS011;10340;53.664;9.908;2023-02-26T08:00:05;0.60;;;0.60;;
20363;SDS011;10340;53.664;9.908;2023-02-26T08:02:33;0.70;;;0.70;;
20363;SDS011;10340;53.664;9.908;2023-02-26T08:05:02;0.60;;;0.60;;
20363;SDS011;10340;53.664;9.908;2023-02-26T08:07:29;0.67;;;0.67;;
20363;SDS011;10340;53.664;9.908;2023-02-26T08:09:56;0.60;;;0.60;;
20363;SDS011;10340;53.664;9.908;2023-02-26T08:12:23;0.73;;;0.73;;
20363;SDS011;10340;53.664;9.908;2023-02-26T08:14:50;0.60;;;0.60;;
20363;SDS011;10340;53.664;9.908;2023-02-26T08:17:17;0.70;;;0.70;;
20363;SDS011;10340;53.664;9.908;2023-02-26T08:19:44;0.67;;;0.67;;
20363;SDS011;10340;53.664;9.908;2023-02-26T08:22:12;0.60;;;0.60;;
20363;SDS011;10340;53.664;9.908;2023-02-26T08:24:39;0.60;;;0.60;;
20363;SDS011;10340;53.664;9.908;2023-02-26T08:27:06;0.73;;;0.73;;
20363;SDS011;10340;53.664;9.908;2023-02-26T08:29:33;0.70;;;0.70;;
20363;SDS011;10340;53.664;9.908;2023-02-26T08:32:00;0.70;;;0.70;;
20363;SDS011;10340;53.664;9.908;2023-02-26T08:34:27;0.57;;;0.57;;
20363;SDS011;10340;53.664;9.908;2023-02-26T08:36:54;0.50;;;0.50;;
20363;SDS011;10340;53.664;9.908;2023-02-26T08:39:23;0.70;;;0.70;;
20363;SDS011;10340;53.664;9.908;2023-02-26T08:41:50;0.60;;;0.60;;
20363;SDS011;10340;53.664;9.908;2023-02-26T08:44:17;0.80;;;0.80;;
20363;SDS011;10340;53.664;9.908;2023-02-26T08:46:44;0.50;;;0.50;;
20363;SDS011;10340;53.664;9.908;2023-02-26T08:49:11;0.67;;;0.67;;
20363;SDS011;10340;53.664;9.908;2023-02-26T08:51:38;0.70;;;0.70;;
20363;SDS011;10340;53.664;9.908;2023-02-26T08:54:05;0.67;;;0.67;;
20363;SDS011;10340;53.664;9.908;2023-02-26T08:56:34;0.63;;;0.63;;
20363;SDS011;10340;53.664;9.908;2023-02-26T08:59:01;0.60;;;0.60;;
20363;SDS011;10340;53.664;9.908;2023-02-26T09:01:28;0.63;;;0.63;;
20363;SDS011;10340;53.664;9.908;2023-02-26T09:03:55;0.60;;;0.60;;
20363;SDS011;10340;53.664;9.908;2023-02-26T09:06:22;0.50;;;0.50;;
20363;SDS011;10340;53.664;9.908;2023-02-26T09:08:49;0.60;;;0.60;;
20363;SDS011;10340;53.664;9.908;2023-02-26T09:11:16;0.50;;;0.50;;
20363;SDS011;10340;53.664;9.908;2023-02-26T09:13:44;0.57;;;0.57;;
20363;SDS011;10340;53.664;9.908;2023-02-26T09:16:11;0.43;;;0.43;;
20363;SDS011;10340;53.664;9.908;2023-02-26T09:18:38;0.60;;;0.60;;
20363;SDS011;10340;53.664;9.908;2023-02-26T09:21:05;0.60;;;0.60;;
20363;SDS011;10340;53.664;9.908;2023-02-26T09:23:32;0.50;;;0.50;;
20363;SDS011;10340;53.664;9.908;2023-02-26T09:25:59;0.40;;;0.40;;
20363;SDS011;10340;53.664;9.908;2023-02-26T09:28:26;0.50;;;0.50;;
20363;SDS011;10340;53.664;9.908;2023-02-26T09:30:54;0.50;;;0.50;;
20363;SDS011;10340;53.664;9.908;2023-02-26T09:33:21;0.40;;;0.40;;
20363;SDS011;10340;53.664;9.908;2023-02-26T09:35:49;0.40;;;0.40;;
20363;SDS011;10340;53.664;9.908;2023-02-26T09:38:17;0.47;;;0.47;;
20363;SDS011;10340;53.664;9.908;2023-02-26T09:40:45;0.40;;;0.40;;
20363;SDS011;10340;53.664;9.908;2023-02-26T09:43:24;0.53;;;0.53;;
20363;SDS011;10340;53.664;9.908;2023-02-26T09:46:04;0.50;;;0.50;;
20363;SDS011;10340;53.664;9.908;2023-02-26T09:48:44;0.50;;;0.50;;
20363;SDS011;10340;53.664;9.908;2023-02-26T09:51:13;0.40;;;0.40;;
20363;SDS011;10340;53.664;9.908;2023-02-26T09:53:44;0.43;;;0.43;;
20363;SDS011;10340;53.664;9.908;2023-02-26T09:56:15;0.60;;;0.60;;
20363;SDS011;10340;53.664;9.908;2023-02-26T09:58:44;0.70;;;0.70;;
20363;SDS011;10340;53.664;9.908;2023-02-26T10:01:14;0.43;;;0.43;;
20363;SDS011;10340;53.664;9.908;2023-02-26T10:03:50;0.53;;;0.53;;
20363;SDS011;10340;53.664;9.908;2023-02-26T10:06:26;0.70;;;0.70;;
20363;SDS011;10340;53.664;9.908;2023-02-26T10:09:08;0.57;;;0.57;;
20363;SDS011;10340;53.664;9.908;2023-02-26T10:11:52;0.50;;;0.50;;
20363;SDS011;10340;53.664;9.908;2023-02-26T10:14:27;0.40;;;0.40;;
20363;SDS011;10340;53.664;9.908;2023-02-26T10:17:04;0.40;;;0.40;;
20363;SDS011;10340;53.664;9.908;2023-02-26T10:19:39;0.33;;;0.33;;
20363;SDS011;10340;53.664;9.908;2023-02-26T10:22:16;0.40;;;0.40;;
20363;SDS011;10340;53.664;9.908;2023-02-26T10:25:21;0.40;;;0.40;;
20363;SDS011;10340;53.664;9.908;2023-02-26T10:27:54;0.40;;;0.40;;
20363;SDS011;10340;53.664;9.908;2023-02-26T10:30:31;0.50;;;0.50;;
20363;SDS011;10340;53.664;9.908;2023-02-26T10:33:12;0.40;;;0.40;;
20363;SDS011;10340;53.664;9.908;2023-02-26T10:35:45;0.43;;;0.43;;
20363;SDS011;10340;53.664;9.908;2023-02-26T10:38:18;0.40;;;0.40;;
20363;SDS011;10340;53.664;9.908;2023-02-26T10:40:49;0.47;;;0.47;;
20363;SDS011;10340;53.664;9.908;2023-02-26T10:43:21;0.30;;;0.30;;
20363;SDS011;10340;53.664;9.908;2023-02-26T10:45:57;0.47;;;0.47;;
20363;SDS011;10340;53.664;9.908;2023-02-26T10:48:43;0.40;;;0.40;;
20363;SDS011;10340;53.664;9.908;2023-02-26T10:51:18;0.30;;;0.30;;
20363;SDS011;10340;53.664;9.908;2023-02-26T10:53:47;0.40;;;0.40;;
20363;SDS011;10340;53.664;9.908;2023-02-26T10:56:19;0.40;;;0.40;;
20363;SDS011;10340;53.664;9.908;2023-02-26T10:58:50;0.40;;;0.40;;
20363;SDS011;10340;53.664;9.908;2023-02-26T11:01:19;0.60;;;0.60;;
20363;SDS011;10340;53.664;9.908;2023-02-26T11:03:50;0.50;;;0.50;;
20363;SDS011;10340;53.664;9.908;2023-02-26T11:06:23;0.33;;;0.33;;
20363;SDS011;10340;53.664;9.908;2023-02-26T11:08:55;0.40;;;0.40;;
20363;SDS011;10340;53.664;9.908;2023-02-26T11:11:39;0.40;;;0.40;;
20363;SDS011;10340;53.664;9.908;2023-02-26T11:14:12;0.33;;;0.33;;
20363;SDS011;10340;53.664;9.908;2023-02-26T11:16:44;0.50;;;0.50;;
20363;SDS011;10340;53.664;9.908;2023-02-26T11:19:18;0.50;;;0.50;;
20363;SDS011;10340;53.664;9.908;2023-02-26T11:21:50;0.43;;;0.43;;
20363;SDS011;10340;53.664;9.908;2023-02-26T11:24:27;0.40;;;0.40;;
20363;SDS011;10340;53.664;9.908;2023-02-26T11:26:57;0.40;;;0.40;;
20363;SDS011;10340;53.664;9.908;2023-02-26T11:29:32;0.40;;;0.40;;
20363;SDS011;10340;53.664;9.908;2023-02-26T11:32:03;0.40;;;0.40;;
20363;SDS011;10340;53.664;9.908;2023-02-26T11:34:32;0.47;;;0.47;;
20363;SDS011;10340;53.664;9.908;2023-02-26T11:37:00;0.47;;;0.47;;
20363;SDS011;10340;53.664;9.908;2023-02-26T11:39:32;0.40;;;0.40;;
20363;SDS011;10340;53.664;9.908;2023-02-26T11:42:01;0.50;;;0.50;;
20363;SDS011;10340;53.664;9.908;2023-02-26T11:44:31;0.40;;;0.40;;
20363;SDS011;10340;53.664;9.908;2023-02-26T11:47:02;0.50;;;0.50;;
20363;SDS011;10340;53.664;9.908;2023-02-26T11:49:33;0.40;;;0.40;;
20363;SDS011;10340;53.664;9.908;2023-02-26T11:54:45;0.40;;;0.40;;
20363;SDS011;10340;53.664;9.908;2023-02-26T11:57:15;0.50;;;0.50;;
20363;SDS011;10340;53.664;9.908;2023-02-26T11:59:46;0.40;;;0.40;;
20363;SDS011;10340;53.664;9.908;2023-02-26T12:02:17;0.40;;;0.40;;
20363;SDS011;10340;53.664;9.908;2023-02-26T12:04:49;0.43;;;0.43;;
20363;SDS011;10340;53.664;9.908;2023-02-26T12:07:19;0.50;;;0.50;;
20363;SDS011;10340;53.664;9.908;2023-02-26T12:09:47;0.40;;;0.40;;
20363;SDS011;10340;53.664;9.908;2023-02-26T12:12:20;0.40;;;0.40;;
20363;SDS011;10340;53.664;9.908;2023-02-26T12:15:02;0.30;;;0.30;;
20363;SDS011;10340;53.664;9.908;2023-02-26T12:17:46;0.30;;;0.30;;
20363;SDS011;10340;53.664;9.908;2023-02-26T12:20:25;0.30;;;0.30;;
20363;SDS011;10340;53.664;9.908;2023-02-26T12:23:03;0.30;;;0.30;;
20363;SDS011;10340;53.664;9.908;2023-02-26T12:25:49;0.30;;;0.30;;
20363;SDS011;10340;53.664;9.908;2023-02-26T12:28:38;0.40;;;0.40;;
20363;SDS011;10340;53.664;9.908;2023-02-26T12:31:23;0.30;;;0.30;;
20363;SDS011;10340;53.664;9.908;2023-02-26T12:34:08;0.40;;;0.40;;
20363;SDS011;10340;53.664;9.908;2023-02-26T12:36:54;0.50;;;0.50;;
20363;SDS011;10340;53.664;9.908;2023-02-26T12:39:38;0.40;;;0.40;;
20363;SDS011;10340;53.664;9.908;2023-02-26T12:42:17;0.40;;;0.40;;
20363;SDS011;10340;53.664;9.908;2023-02-26T12:44:56;0.30;;;0.30;;
20363;SDS011;10340;53.664;9.908;2023-02-26T12:47:45;0.37;;;0.37;;
20363;SDS011;10340;53.664;9.908;2023-02-26T12:53:28;0.30;;;0.30;;
20363;SDS011;10340;53.664;9.908;2023-02-26T12:56:12;0.30;;;0.30;;
20363;SDS011;10340;53.664;9.908;2023-02-26T12:59:06;0.47;;;0.47;;
20363;SDS011;10340;53.664;9.908;2023-02-26T13:01:50;0.33;;;0.33;;
20363;SDS011;10340;53.664;9.908;2023-02-26T13:04:42;0.30;;;0.30;;
20363;SDS011;10340;53.664;9.908;2023-02-26T13:07:31;0.30;;;0.30;;
20363;SDS011;10340;53.664;9.908;2023-02-26T13:10:16;0.40;;;0.40;;
20363;SDS011;10340;53.664;9.908;2023-02-26T13:12:53;0.40;;;0.40;;
20363;SDS011;10340;53.664;9.908;2023-02-26T13:15:33;0.30;;;0.30;;
20363;SDS011;10340;53.664;9.908;2023-02-26T13:18:24;0.35;;;0.35;;
20363;SDS011;10340;53.664;9.908;2023-02-26T13:20:57;0.40;;;0.40;;
20363;SDS011;10340;53.664;9.908;2023-02-26T13:23:28;0.43;;;0.43;;
20363;SDS011;10340;53.664;9.908;2023-02-26T13:26:02;0.40;;;0.40;;
20363;SDS011;10340;53.664;9.908;2023-02-26T13:28:35;0.50;;;0.50;;
20363;SDS011;10340;53.664;9.908;2023-02-26T13:31:07;0.40;;;0.40;;
20363;SDS011;10340;53.664;9.908;2023-02-26T13:33:37;0.40;;;0.40;;
20363;SDS011;10340;53.664;9.908;2023-02-26T13:36:06;0.40;;;0.40;;
20363;SDS011;10340;53.664;9.908;2023-02-26T13:38:37;0.40;;;0.40;;
20363;SDS011;10340;53.664;9.908;2023-02-26T13:41:14;0.40;;;0.40;;
20363;SDS011;10340;53.664;9.908;2023-02-26T13:43:54;0.40;;;0.40;;
20363;SDS011;10340;53.664;9.908;2023-02-26T13:46:46;0.40;;;0.40;;
20363;SDS011;10340;53.664;9.908;2023-02-26T13:49:30;0.40;;;0.40;;
20363;SDS011;10340;53.664;9.908;2023-02-26T13:52:21;0.40;;;0.40;;
20363;SDS011;10340;53.664;9.908;2023-02-26T13:54:50;0.32;;;0.32;;
20363;SDS011;10340;53.664;9.908;2023-02-26T13:57:24;0.30;;;0.30;;
20363;SDS011;10340;53.664;9.908;2023-02-26T14:00:08;0.30;;;0.30;;
20363;SDS011;10340;53.664;9.908;2023-02-26T14:02:51;0.30;;;0.30;;
20363;SDS011;10340;53.664;9.908;2023-02-26T14:05:31;0.40;;;0.40;;
20363;SDS011;10340;53.664;9.908;2023-02-26T14:08:26;0.30;;;0.30;;
20363;SDS011;10340;53.664;9.908;2023-02-26T14:14:12;0.30;;;0.30;;
20363;SDS011;10340;53.664;9.908;2023-02-26T14:16:54;0.32;;;0.32;;
20363;SDS011;10340;53.664;9.908;2023-02-26T14:20:13;0.30;;;0.30;;
20363;SDS011;10340;53.664;9.908;2023-02-26T14:22:45;0.30;;;0.30;;
20363;SDS011;10340;53.664;9.908;2023-02-26T14:25:15;0.40;;;0.40;;
20363;SDS011;10340;53.664;9.908;2023-02-26T14:27:47;0.40;;;0.40;;
20363;SDS011;10340;53.664;9.908;2023-02-26T14:30:16;0.40;;;0.40;;
20363;SDS011;10340;53.664;9.908;2023-02-26T14:32:54;0.30;;;0.30;;
20363;SDS011;10340;53.664;9.908;2023-02-26T14:35:34;0.40;;;0.40;;
20363;SDS011;10340;53.664;9.908;2023-02-26T14:38:06;0.47;;;0.47;;
20363;SDS011;10340;53.664;9.908;2023-02-26T14:40:38;0.32;;;0.32;;
20363;SDS011;10340;53.664;9.908;2023-02-26T14:43:08;0.30;;;0.30;;
20363;SDS011;10340;53.664;9.908;2023-02-26T14:45:44;0.40;;;0.40;;
20363;SDS011;10340;53.664;9.908;2023-02-26T14:48:13;0.30;;;0.30;;
20363;SDS011;10340;53.664;9.908;2023-02-26T14:50:45;0.30;;;0.30;;
20363;SDS011;10340;53.664;9.908;2023-02-26T14:53:38;0.37;;;0.37;;
20363;SDS011;10340;53.664;9.908;2023-02-26T14:56:28;0.40;;;0.40;;
20363;SDS011;10340;53.664;9.908;2023-02-26T14:59:04;0.40;;;0.40;;
20363;SDS011;10340;53.664;9.908;2023-02-26T15:01:46;0.40;;;0.40;;
20363;SDS011;10340;53.664;9.908;2023-02-26T15:07:42;0.40;;;0.40;;
20363;SDS011;10340;53.664;9.908;2023-02-26T15:10:26;0.40;;;0.40;;
20363;SDS011;10340;53.664;9.908;2023-02-26T15:13:08;0.38;;;0.38;;
20363;SDS011;10340;53.664;9.908;2023-02-26T15:15:47;0.40;;;0.40;;
20363;SDS011;10340;53.664;9.908;2023-02-26T15:21:16;0.40;;;0.40;;
20363;SDS011;10340;53.664;9.908;2023-02-26T15:23:53;0.30;;;0.30;;
20363;SDS011;10340;53.664;9.908;2023-02-26T15:26:22;0.40;;;0.40;;
20363;SDS011;10340;53.664;9.908;2023-02-26T15:28:52;0.33;;;0.33;;
20363;SDS011;10340;53.664;9.908;2023-02-26T15:31:26;0.40;;;0.40;;
20363;SDS011;10340;53.664;9.908;2023-02-26T15:33:57;0.40;;;0.40;;
20363;SDS011;10340;53.664;9.908;2023-02-26T15:36:24;0.43;;;0.43;;
20363;SDS011;10340;53.664;9.908;2023-02-26T15:38:56;0.30;;;0.30;;